Time;durP1;ratioP1;P1;durP2;ratioP2;P2;SDS_P1;SDS_P2;PMS_P1;PMS_P2;Temp;Humidity;BMP_temperature;BMP_pressure;BME280_temperature;BME280_humidity;BME280_pressure;Samples;Min_cycle;Max_cycle;Signal;HPM_P1;HPM_P2
2021/08/23 00:00:58;;;;;;;37.05;14.10;;;;;;;14.02;88.83;94930.25;1794663;80;21623;-58
2021/08/23 00:03:25;;;;;;;33.98;14.90;;;;;;;14.04;89.21;94930.55;1794737;80;20934;-58
2021/08/23 00:05:52;;;;;;;47.90;16.25;;;;;;;14.09;89.51;94927.14;1794740;80;21017;-57
2021/08/23 00:08:20;;;;;;;30.30;12.03;;;;;;;14.14;89.60;94922.39;1794688;80;20968;-57
2021/08/23 00:10:46;;;;;;;33.10;11.95;;;;;;;14.18;89.57;94921.63;1795002;80;21817;-57
2021/08/23 00:13:13;;;;;;;34.88;12.55;;;;;;;14.21;89.47;94917.93;1794609;80;20938;-57
2021/08/23 00:15:40;;;;;;;32.65;13.43;;;;;;;14.25;89.62;94922.67;1794651;80;21028;-57
2021/08/23 00:18:08;;;;;;;34.92;13.78;;;;;;;14.34;89.64;94915.74;1794740;80;21028;-58
2021/08/23 00:20:50;;;;;;;35.13;14.30;;;;;;;14.43;89.77;94915.84;1794614;80;20926;-58
2021/08/23 00:23:16;;;;;;;30.02;13.45;;;;;;;14.47;89.31;94913.66;1794185;80;20934;-58
2021/08/23 00:25:43;;;;;;;36.63;12.53;;;;;;;14.50;89.02;94917.52;1794512;80;20954;-58
2021/08/23 00:28:12;;;;;;;32.25;13.70;;;;;;;14.50;88.94;94915.52;1794645;80;21497;-58
2021/08/23 00:30:40;;;;;;;33.98;15.45;;;;;;;14.48;89.07;94917.21;1794649;80;20934;-58
2021/08/23 00:33:08;;;;;;;42.25;15.48;;;;;;;14.46;88.86;94907.23;1794619;80;21056;-57
2021/08/23 00:35:35;;;;;;;37.20;15.28;;;;;;;14.40;88.52;94916.63;1794653;80;21049;-57
2021/08/23 00:38:03;;;;;;;29.37;14.15;;;;;;;14.33;88.53;94921.88;1794683;80;21013;-58
2021/08/23 00:40:29;;;;;;;26.25;13.22;;;;;;;14.30;88.50;94920.05;1794563;78;20964;-58
2021/08/23 00:42:59;;;;;;;22.55;12.35;;;;;;;14.27;88.44;94914.06;1794611;80;21012;-58
2021/08/23 00:45:26;;;;;;;24.43;12.63;;;;;;;14.25;88.70;94910.22;1766383;80;20993;-57
2021/08/23 00:47:53;;;;;;;26.95;13.15;;;;;;;14.25;89.04;94914.38;1794797;80;21808;-58
2021/08/23 00:50:20;;;;;;;22.67;12.43;;;;;;;14.25;89.20;94911.61;1794886;80;21004;-57
2021/08/23 00:52:48;;;;;;;25.85;12.58;;;;;;;14.26;89.34;94911.75;1794655;80;20953;-57
2021/08/23 00:55:14;;;;;;;22.20;11.88;;;;;;;14.26;89.18;94911.75;1794827;80;20962;-58
2021/08/23 00:57:41;;;;;;;18.07;10.85;;;;;;;14.29;89.43;94911.59;1793261;79;20985;-58
2021/08/23 01:00:11;;;;;;;21.15;10.80;;;;;;;14.32;89.33;94911.30;1789095;80;21198;-58
2021/08/23 01:03:00;;;;;;;17.85;11.85;;;;;;;14.35;89.55;94911.73;1788963;80;21438;-58
2021/08/23 01:05:32;;;;;;;16.42;10.50;;;;;;;14.38;89.56;94903.25;1789218;80;21694;-57
2021/08/23 01:08:06;;;;;;;13.30;8.73;;;;;;;14.42;89.18;94903.09;1789137;80;21045;-57
2021/08/23 01:10:42;;;;;;;11.05;8.63;;;;;;;14.40;88.88;94902.80;1789167;80;20985;-58
2021/08/23 01:13:09;;;;;;;10.15;8.33;;;;;;;14.37;88.86;94900.97;1783072;80;22422;-57
2021/08/23 01:15:36;;;;;;;11.45;7.80;;;;;;;14.37;89.04;94895.42;1788954;80;20938;-59
2021/08/23 01:18:04;;;;;;;11.85;8.20;;;;;;;14.36;89.17;94898.80;1789099;80;20997;-57
2021/08/23 01:20:36;;;;;;;11.18;7.55;;;;;;;14.38;88.98;94903.25;1788984;80;20982;-57
2021/08/23 01:23:03;;;;;;;11.48;8.28;;;;;;;14.40;88.97;94898.64;1789428;80;21426;-57
2021/08/23 01:25:33;;;;;;;28.17;14.00;;;;;;;14.46;88.98;94896.91;1788993;80;21130;-57
2021/08/23 01:28:48;;;;;;;30.75;14.65;;;;;;;14.49;88.44;94889.05;1789129;80;20925;-58
2021/08/23 01:31:37;;;;;;;25.32;12.43;;;;;;;14.44;87.83;94888.30;1789234;80;20949;-57
2021/08/23 01:34:04;;;;;;;24.15;12.20;;;;;;;14.32;87.45;94886.38;1789406;80;20933;-57
2021/08/23 01:36:31;;;;;;;20.68;13.32;;;;;;;14.20;87.42;94885.96;1789121;80;21450;-57
2021/08/23 01:38:59;;;;;;;29.80;13.65;;;;;;;14.08;87.56;94882.73;1789107;78;21145;-57
2021/08/23 01:41:25;;;;;;;33.67;14.60;;;;;;;14.03;88.31;94887.52;1788908;80;21402;-57
2021/08/23 01:43:52;;;;;;;23.25;11.55;;;;;;;14.00;88.46;94886.44;1789265;80;21465;-58
2021/08/23 01:46:18;;;;;;;20.43;11.93;;;;;;;13.97;88.52;94885.99;1788926;80;21064;-58
2021/08/23 01:48:46;;;;;;;15.40;10.20;;;;;;;13.90;88.62;94883.56;1788997;80;21020;-58
2021/08/23 01:51:12;;;;;;;25.70;12.73;;;;;;;13.90;89.13;94883.56;1789060;80;21106;-58
2021/08/23 01:53:41;;;;;;;23.65;11.50;;;;;;;13.98;89.13;94875.70;1788877;80;21037;-57
2021/08/23 01:56:08;;;;;;;14.20;9.70;;;;;;;14.01;89.21;94874.77;1756754;80;21104;-57
2021/08/23 01:58:34;;;;;;;13.78;8.90;;;;;;;14.01;88.98;94883.07;1789195;80;20966;-57
2021/08/23 02:01:01;;;;;;;11.93;8.50;;;;;;;13.98;88.85;94876.45;1788990;80;21041;-59
2021/08/23 02:03:28;;;;;;;13.18;9.48;;;;;;;13.95;88.88;94873.24;1788928;80;21757;-58
2021/08/23 02:05:56;;;;;;;12.47;8.98;;;;;;;13.95;88.98;94873.84;1789074;80;21048;-57
2021/08/23 02:08:22;;;;;;;16.20;10.88;;;;;;;13.96;89.13;94880.94;1788965;80;20993;-57
2021/08/23 02:10:50;;;;;;;11.75;8.60;;;;;;;14.00;89.15;94878.77;1789236;80;20977;-58
2021/08/23 02:13:16;;;;;;;15.98;9.63;;;;;;;14.01;88.87;94879.67;1789094;80;20997;-58
2021/08/23 02:15:44;;;;;;;12.13;9.00;;;;;;;13.94;88.82;94882.00;1789127;80;20874;-57
2021/08/23 02:18:12;;;;;;;10.65;8.55;;;;;;;13.87;88.87;94876.20;1788905;80;21037;-58
2021/08/23 02:20:38;;;;;;;11.80;9.43;;;;;;;13.82;89.04;94874.67;1789028;80;21037;-58
2021/08/23 02:23:05;;;;;;;10.00;7.47;;;;;;;13.77;89.40;94873.89;1788941;80;21482;-58
2021/08/23 02:25:34;;;;;;;9.13;7.45;;;;;;;13.80;89.54;94874.37;1788984;80;20950;-58
2021/08/23 02:28:01;;;;;;;11.60;8.85;;;;;;;13.80;89.31;94868.20;1789154;80;21994;-58
2021/08/23 02:30:28;;;;;;;12.78;8.93;;;;;;;13.81;89.17;94864.20;1788962;80;20926;-58
2021/08/23 02:32:54;;;;;;;11.43;7.20;;;;;;;13.82;88.67;94866.38;1789003;79;20985;-58
2021/08/23 02:35:21;;;;;;;10.08;7.58;;;;;;;13.77;88.81;94869.74;1789078;80;21462;-58
2021/08/23 02:37:47;;;;;;;13.35;9.43;;;;;;;13.73;88.98;94865.00;1788974;80;20930;-58
2021/08/23 02:40:14;;;;;;;15.25;7.95;;;;;;;13.69;89.59;94858.87;1789033;78;21228;-59
2021/08/23 02:42:41;;;;;;;15.32;8.60;;;;;;;13.71;89.59;94857.18;1789088;80;21017;-58
2021/08/23 02:45:09;;;;;;;10.93;8.15;;;;;;;13.68;89.38;94859.50;1788877;80;20979;-58
2021/08/23 02:47:36;;;;;;;14.00;9.58;;;;;;;13.63;89.30;94862.11;1788927;80;21103;-58
2021/08/23 02:50:04;;;;;;;18.35;9.68;;;;;;;13.63;89.36;94862.87;1788913;80;21029;-58
2021/08/23 02:52:31;;;;;;;12.73;9.65;;;;;;;13.63;89.27;94861.48;1788930;80;21143;-58
2021/08/23 02:54:59;;;;;;;15.13;8.80;;;;;;;13.64;89.28;94866.41;1789085;80;21013;-58
2021/08/23 02:57:26;;;;;;;11.80;8.55;;;;;;;13.66;89.40;94868.09;1788912;80;20946;-58
2021/08/23 02:59:52;;;;;;;11.50;7.85;;;;;;;13.68;89.16;94872.55;1788686;80;20981;-57
2021/08/23 03:02:19;;;;;;;14.93;8.85;;;;;;;13.69;89.04;94866.56;1788988;80;21060;-57
2021/08/23 03:04:46;;;;;;;15.50;9.48;;;;;;;13.72;89.22;94863.46;1788976;80;22460;-57
2021/08/23 03:07:12;;;;;;;10.32;8.05;;;;;;;13.75;89.30;94859.77;1788819;80;20985;-57
2021/08/23 03:09:39;;;;;;;17.98;8.13;;;;;;;13.75;88.84;94868.84;1789097;80;21013;-58
2021/08/23 03:12:06;;;;;;;8.93;7.78;;;;;;;13.68;88.74;94862.27;1789066;80;20977;-58
2021/08/23 03:14:32;;;;;;;10.35;8.68;;;;;;;13.67;89.01;94865.48;1789537;80;21017;-58
2021/08/23 03:16:59;;;;;;;9.58;8.40;;;;;;;13.65;89.20;94864.55;1789004;79;21149;-58
2021/08/23 03:19:26;;;;;;;13.93;8.55;;;;;;;13.66;89.42;94863.95;1789254;80;21391;-58
2021/08/23 03:21:52;;;;;;;8.83;7.85;;;;;;;13.67;89.21;94868.25;1789078;80;20978;-57
2021/08/23 03:24:19;;;;;;;9.98;7.97;;;;;;;13.66;89.21;94867.46;1789139;80;20966;-57
2021/08/23 03:26:46;;;;;;;18.98;9.13;;;;;;;13.67;89.08;94864.09;1789058;80;20954;-58
2021/08/23 03:29:13;;;;;;;18.73;9.33;;;;;;;13.66;89.18;94861.93;1789383;80;21946;-58
2021/08/23 03:31:40;;;;;;;14.15;9.00;;;;;;;13.69;89.74;94854.72;1789003;80;21052;-57
2021/08/23 03:34:12;;;;;;;9.98;7.87;;;;;;;13.74;89.66;94854.09;1789349;80;20946;-57
2021/08/23 03:36:36;;;;;;;13.08;7.15;;;;;;;13.74;89.45;94858.23;1788904;80;21450;-58
2021/08/23 03:39:03;;;;;;;8.65;6.80;;;;;;;13.72;89.22;94859.31;1789155;78;20941;-58
2021/08/23 03:41:29;;;;;;;9.98;7.72;;;;;;;13.68;89.16;94858.72;1789012;80;21115;-58
2021/08/23 03:43:56;;;;;;;8.95;7.72;;;;;;;13.71;89.47;94859.16;1789113;80;21418;-57
2021/08/23 03:46:23;;;;;;;12.23;7.22;;;;;;;13.76;89.35;94862.68;1789067;80;20985;-59
2021/08/23 03:48:49;;;;;;;8.53;7.65;;;;;;;13.81;88.99;94872.50;1789049;80;20978;-58
2021/08/23 03:51:17;;;;;;;9.65;7.60;;;;;;;13.82;88.47;94864.99;1789167;80;20942;-58
2021/08/23 03:53:43;;;;;;;7.95;6.87;;;;;;;13.79;88.52;94863.91;1782811;80;21105;-58
2021/08/23 03:56:10;;;;;;;10.30;8.28;;;;;;;13.83;88.45;94867.91;1789034;80;20990;-58
2021/08/23 03:58:37;;;;;;;11.75;8.80;;;;;;;13.86;88.28;94873.88;1782995;80;20996;-58
2021/08/23 04:01:04;;;;;;;15.08;8.83;;;;;;;13.84;88.23;94868.80;1760144;81;20945;-57
2021/08/23 04:03:30;;;;;;;12.15;8.68;;;;;;;13.80;88.28;94870.22;1760129;81;20992;-58
2021/08/23 04:05:57;;;;;;;9.30;7.67;;;;;;;13.79;88.36;94877.73;1759986;81;21429;-58
2021/08/23 04:08:24;;;;;;;10.05;6.97;;;;;;;13.85;88.67;94879.27;1759931;81;20929;-58
2021/08/23 04:10:50;;;;;;;11.80;8.08;;;;;;;13.90;88.60;94874.48;1760111;81;21005;-59
2021/08/23 04:13:17;;;;;;;11.57;8.45;;;;;;;13.96;88.33;94880.94;1760368;81;20977;-58
2021/08/23 04:15:47;;;;;;;12.15;8.73;;;;;;;13.99;88.34;94877.23;1760092;81;20957;-58
2021/08/23 04:18:14;;;;;;;11.40;7.87;;;;;;;14.04;88.29;94871.07;1760139;81;21151;-58
2021/08/23 04:20:42;;;;;;;8.40;6.72;;;;;;;14.08;88.09;94859.22;1759948;81;20977;-58
2021/08/23 04:23:09;;;;;;;10.53;6.90;;;;;;;14.11;87.82;94863.20;1760239;81;21067;-58
2021/08/23 04:25:36;;;;;;;11.90;7.30;;;;;;;14.14;87.88;94862.91;1760136;81;21414;-58
2021/08/23 04:28:04;;;;;;;11.00;8.15;;;;;;;14.17;87.88;94865.52;1760372;81;20989;-58
2021/08/23 04:30:31;;;;;;;12.93;8.10;;;;;;;14.22;87.69;94862.10;1760197;81;21133;-58
2021/08/23 04:32:59;;;;;;;18.80;7.92;;;;;;;14.26;87.75;94867.48;1759944;81;21092;-58
2021/08/23 04:35:25;;;;;;;10.85;8.18;;;;;;;14.31;87.46;94857.92;1760102;81;20949;-59
2021/08/23 04:37:53;;;;;;;17.45;8.10;;;;;;;14.37;87.37;94867.12;1759991;81;21056;-59
2021/08/23 04:40:19;;;;;;;17.90;8.00;;;;;;;14.43;87.26;94868.63;1760012;80;21043;-59
2021/08/23 04:42:46;;;;;;;16.23;7.83;;;;;;;14.45;87.09;94869.08;1760006;81;22113;-59
2021/08/23 04:45:13;;;;;;;12.07;7.75;;;;;;;14.52;87.08;94859.06;1760013;81;21004;-58
2021/08/23 04:47:40;;;;;;;10.25;7.72;;;;;;;14.52;86.55;94867.37;1760298;81;21032;-59
2021/08/23 04:50:08;;;;;;;9.05;7.47;;;;;;;14.51;86.47;94861.69;1759999;80;20937;-58
2021/08/23 04:52:44;;;;;;;9.40;7.42;;;;;;;14.49;86.30;94860.61;1760501;81;21016;-58
2021/08/23 04:55:12;;;;;;;17.45;7.97;;;;;;;14.50;86.43;94857.38;1760094;81;21142;-58
2021/08/23 04:57:39;;;;;;;14.80;8.43;;;;;;;14.49;86.13;94853.05;1759893;81;21008;-58
2021/08/23 05:00:09;;;;;;;19.87;8.95;;;;;;;14.47;86.40;94854.78;1779898;79;20954;-59
2021/08/23 05:02:36;;;;;;;12.40;7.85;;;;;;;14.51;86.62;94852.59;1789324;80;20954;-58
2021/08/23 05:05:04;;;;;;;15.48;8.38;;;;;;;14.58;86.43;94850.25;1788959;80;21510;-59
2021/08/23 05:07:31;;;;;;;12.88;8.58;;;;;;;14.65;86.42;94847.13;1789348;80;21122;-58
2021/08/23 05:09:58;;;;;;;12.65;8.73;;;;;;;14.71;86.08;94848.63;1788895;80;21066;-59
2021/08/23 05:12:24;;;;;;;17.62;7.97;;;;;;;14.73;86.02;94851.09;1789216;80;20942;-58
2021/08/23 05:14:51;;;;;;;19.15;8.05;;;;;;;14.75;85.89;94842.30;1789068;80;21032;-59
2021/08/23 05:17:19;;;;;;;13.10;7.72;;;;;;;14.77;85.79;94850.89;1789024;79;21524;-58
2021/08/23 05:19:45;;;;;;;12.07;7.08;;;;;;;14.80;85.69;94852.75;1789235;80;21136;-58
2021/08/23 05:22:12;;;;;;;12.18;6.97;;;;;;;14.84;85.51;94847.16;1789006;80;21049;-59
2021/08/23 05:24:38;;;;;;;18.82;7.87;;;;;;;14.91;85.44;94850.97;1789089;80;21041;-58
2021/08/23 05:27:05;;;;;;;17.17;8.28;;;;;;;14.98;85.14;94852.62;1789315;80;20997;-59
2021/08/23 05:29:32;;;;;;;13.90;8.08;;;;;;;14.99;84.83;94852.14;1788963;80;20993;-58
2021/08/23 05:31:58;;;;;;;25.77;8.48;;;;;;;14.99;84.82;94849.36;1788931;80;21970;-58
2021/08/23 05:34:25;;;;;;;20.72;8.23;;;;;;;15.05;84.57;94846.72;1789057;80;21296;-59
2021/08/23 05:36:52;;;;;;;13.22;8.50;;;;;;;15.10;84.06;94854.36;1789297;80;21430;-59
2021/08/23 05:39:19;;;;;;;12.50;7.85;;;;;;;15.08;84.09;94847.93;1789058;78;21052;-59
2021/08/23 05:41:46;;;;;;;18.45;9.30;;;;;;;15.05;84.25;94843.94;1789254;80;20941;-59
2021/08/23 05:44:13;;;;;;;55.33;25.70;;;;;;;15.03;84.45;94854.10;1788980;80;21136;-58
2021/08/23 05:46:39;;;;;;;47.17;20.70;;;;;;;15.03;84.63;94845.79;1789079;80;21608;-57
2021/08/23 05:49:06;;;;;;;33.48;18.17;;;;;;;15.08;84.83;94848.53;1725092;80;21421;-60
2021/08/23 05:51:32;;;;;;;27.42;14.58;;;;;;;15.19;85.23;94843.97;1789243;80;20990;-58
2021/08/23 05:53:59;;;;;;;23.55;14.58;;;;;;;15.33;85.13;94835.60;1788997;80;21029;-59
2021/08/23 05:56:26;;;;;;;21.30;12.95;;;;;;;15.48;84.71;94837.14;1788982;80;22310;-58
2021/08/23 05:58:52;;;;;;;20.90;13.55;;;;;;;15.62;84.09;94836.40;1788909;80;21098;-59
2021/08/23 06:01:19;;;;;;;22.67;13.83;;;;;;;15.69;83.56;94832.48;1789294;80;21599;-59
2021/08/23 06:03:46;;;;;;;19.50;12.80;;;;;;;15.75;83.37;94825.02;1789031;80;21442;-59
2021/08/23 06:06:13;;;;;;;16.20;10.68;;;;;;;15.81;83.04;94826.65;1788972;80;21001;-59
2021/08/23 06:08:41;;;;;;;11.10;9.18;;;;;;;15.94;82.54;94836.06;1788802;80;21973;-58
2021/08/23 06:11:08;;;;;;;15.80;10.15;;;;;;;16.00;81.68;94826.59;1788952;80;20922;-59
2021/08/23 06:13:35;;;;;;;18.17;12.23;;;;;;;16.03;81.38;94824.23;1788785;80;20977;-58
2021/08/23 06:16:02;;;;;;;12.75;8.93;;;;;;;16.03;81.41;94829.79;1789151;80;21001;-59
2021/08/23 06:18:30;;;;;;;12.28;8.53;;;;;;;16.10;81.08;94816.90;1788792;80;21064;-59
2021/08/23 06:21:00;;;;;;;13.32;8.98;;;;;;;16.19;81.10;94822.97;1788855;80;21321;-58
2021/08/23 06:23:25;;;;;;;14.30;8.40;;;;;;;16.29;80.58;94816.81;1788831;80;21430;-59
2021/08/23 06:25:53;;;;;;;15.40;9.15;;;;;;;16.41;80.02;94811.61;1788840;80;20988;-59
2021/08/23 06:28:20;;;;;;;14.15;8.15;;;;;;;16.49;79.80;94814.11;1788853;80;21033;-59
2021/08/23 06:30:48;;;;;;;13.88;9.98;;;;;;;16.62;79.17;94815.95;1789071;80;21454;-59
2021/08/23 06:33:15;;;;;;;16.02;9.95;;;;;;;16.69;78.87;94818.34;1788139;78;21101;-59
2021/08/23 06:35:41;;;;;;;12.15;7.65;;;;;;;16.80;78.36;94812.91;1787706;79;21035;-61
2021/08/23 06:38:08;;;;;;;10.93;7.55;;;;;;;16.86;77.92;94810.34;1775754;79;20959;-60
2021/08/23 06:40:35;;;;;;;10.32;7.33;;;;;;;16.89;77.37;94811.41;1781204;79;20955;-60
2021/08/23 06:43:03;;;;;;;9.88;7.15;;;;;;;16.89;77.46;94808.63;1779688;79;21047;-59
2021/08/23 06:45:31;;;;;;;11.57;7.50;;;;;;;16.98;77.67;94809.86;1783629;79;21843;-58
2021/08/23 06:47:59;;;;;;;11.70;7.53;;;;;;;17.19;77.56;94807.20;1777514;79;20999;-60
2021/08/23 06:50:27;;;;;;;11.12;7.45;;;;;;;17.43;77.06;94800.83;1777603;79;20961;-61
2021/08/23 06:52:54;;;;;;;10.72;8.63;;;;;;;17.64;75.62;94803.70;1782648;79;20996;-59
2021/08/23 06:55:22;;;;;;;9.50;6.85;;;;;;;17.73;74.99;94806.30;1777895;79;37393;-59
2021/08/23 06:57:49;;;;;;;8.55;6.62;;;;;;;17.85;74.55;94800.98;1791770;79;21822;-59
2021/08/23 07:00:16;;;;;;;8.58;6.47;;;;;;;17.97;74.33;94794.27;1774654;79;21445;-60
2021/08/23 07:02:43;;;;;;;8.63;6.42;;;;;;;18.12;73.65;94799.83;1785381;79;21483;-60
2021/08/23 07:05:14;;;;;;;9.65;7.50;;;;;;;18.22;73.18;94788.63;1784962;79;21036;-60
2021/08/23 07:07:41;;;;;;;9.93;6.40;;;;;;;18.29;72.62;94784.78;1783740;78;21015;-59
2021/08/23 07:10:12;;;;;;;11.30;5.92;;;;;;;18.37;72.49;94785.87;1774325;79;22339;-59
2021/08/23 07:12:39;;;;;;;7.87;6.45;;;;;;;18.42;72.06;94786.53;1772155;79;21001;-59
2021/08/23 07:15:07;;;;;;;9.60;6.05;;;;;;;18.48;71.81;94792.89;1786134;79;20987;-59
2021/08/23 07:17:34;;;;;;;12.88;6.95;;;;;;;18.52;71.69;94786.48;1787997;80;20965;-60
2021/08/23 07:20:01;;;;;;;11.10;6.72;;;;;;;18.55;71.62;94786.88;1788009;79;21018;-60
2021/08/23 07:22:27;;;;;;;21.30;7.80;;;;;;;18.61;71.24;94787.66;1806370;78;21280;-59
2021/08/23 07:24:54;;;;;;;15.63;7.60;;;;;;;18.65;70.90;94781.86;1798200;78;20956;-60
2021/08/23 07:27:21;;;;;;;24.20;7.75;;;;;;;18.65;70.69;94786.79;1781489;79;21778;-60
2021/08/23 07:29:47;;;;;;;20.32;8.50;;;;;;;18.63;70.70;94787.92;1790413;79;21373;-60
2021/08/23 07:32:14;;;;;;;16.67;8.63;;;;;;;18.62;70.90;94779.42;1787596;78;20979;-60
2021/08/23 07:34:41;;;;;;;19.17;9.78;;;;;;;18.59;71.18;94786.00;1776837;79;21387;-60
2021/08/23 07:37:08;;;;;;;13.98;7.75;;;;;;;18.53;71.40;94782.43;1787182;79;21042;-59
2021/08/23 07:39:35;;;;;;;17.90;7.60;;;;;;;18.52;71.48;94780.91;1784158;78;20948;-59
2021/08/23 07:42:03;;;;;;;19.98;8.08;;;;;;;18.54;71.65;94779.77;1772367;80;21161;-60
2021/08/23 07:44:30;;;;;;;22.50;7.47;;;;;;;18.62;72.08;94782.22;1778400;79;21077;-59
2021/08/23 07:46:56;;;;;;;14.73;8.33;;;;;;;18.74;71.59;94778.23;1791778;78;21255;-60
2021/08/23 07:49:24;;;;;;;20.85;8.23;;;;;;;18.88;71.60;94780.71;1783359;79;21015;-61
2021/08/23 07:51:51;;;;;;;20.23;8.55;;;;;;;19.03;70.89;94781.29;1791524;79;20990;-59
2021/08/23 07:54:19;;;;;;;13.93;7.58;;;;;;;19.15;70.41;94779.43;1802257;79;21113;-60
2021/08/23 07:56:46;;;;;;;16.40;8.25;;;;;;;19.27;69.73;94765.69;1802134;79;20943;-60
2021/08/23 07:59:12;;;;;;;11.53;7.03;;;;;;;19.38;69.35;94761.52;1802227;79;21118;-59
2021/08/23 08:01:39;;;;;;;11.93;7.17;;;;;;;19.55;68.71;94758.14;1801954;79;21057;-61
2021/08/23 08:04:06;;;;;;;9.75;6.55;;;;;;;19.74;67.93;94757.78;1802100;79;21450;-60
2021/08/23 08:06:32;;;;;;;10.10;5.90;;;;;;;19.93;67.74;94753.23;1802274;79;21459;-60
2021/08/23 08:08:59;;;;;;;9.88;5.92;;;;;;;20.14;66.88;94748.31;1802477;79;21061;-59
2021/08/23 08:11:26;;;;;;;7.33;5.33;;;;;;;20.35;65.78;94743.22;1802361;79;22035;-60
2021/08/23 08:13:53;;;;;;;8.23;5.67;;;;;;;20.52;65.28;94741.16;1802199;79;21026;-60
2021/08/23 08:16:20;;;;;;;12.23;6.45;;;;;;;20.65;65.09;94737.17;1802087;79;21117;-60
2021/08/23 08:18:49;;;;;;;7.58;6.08;;;;;;;20.75;64.73;94732.19;1802151;78;21034;-60
2021/08/23 08:21:15;;;;;;;7.10;5.85;;;;;;;20.87;63.90;94725.31;1802288;79;20942;-59
2021/08/23 08:23:42;;;;;;;7.90;5.92;;;;;;;20.96;63.82;94723.61;1802336;79;21821;-60
2021/08/23 08:26:09;;;;;;;8.60;5.67;;;;;;;21.07;63.59;94728.43;1801992;79;21633;-62
2021/08/23 08:28:36;;;;;;;8.23;5.72;;;;;;;21.18;63.43;94730.53;1802100;79;20931;-59
2021/08/23 08:31:03;;;;;;;7.45;5.87;;;;;;;21.33;63.16;94724.60;1802185;79;21510;-62
2021/08/23 08:33:29;;;;;;;6.22;5.22;;;;;;;21.50;62.75;94721.06;1802183;79;21069;-60
2021/08/23 08:35:59;;;;;;;9.38;5.45;;;;;;;21.68;62.35;94716.27;1802044;78;21061;-62
2021/08/23 08:38:26;;;;;;;8.38;5.67;;;;;;;21.80;62.24;94721.27;1802115;78;20946;-59
2021/08/23 08:40:56;;;;;;;11.22;7.33;;;;;;;21.91;62.07;94711.39;1802050;79;21175;-60
2021/08/23 08:43:22;;;;;;;10.03;6.20;;;;;;;22.01;61.75;94712.56;1747056;79;21549;-60
2021/08/23 08:45:49;;;;;;;10.10;6.60;;;;;;;22.03;61.68;94705.05;1802245;79;21069;-60
2021/08/23 08:48:19;;;;;;;13.60;7.35;;;;;;;22.06;61.59;94702.72;1802195;79;20971;-59
2021/08/23 08:50:50;;;;;;;13.45;7.40;;;;;;;22.14;61.48;94694.50;1801965;79;20939;-59
2021/08/23 08:53:16;;;;;;;15.30;8.78;;;;;;;22.26;61.51;94695.92;1802300;79;20994;-60
2021/08/23 08:55:43;;;;;;;12.88;8.13;;;;;;;22.38;61.46;94689.71;1802256;79;20978;-60
2021/08/23 08:58:10;;;;;;;12.33;7.47;;;;;;;22.54;61.26;94681.77;1802022;79;21135;-60
2021/08/23 09:00:40;;;;;;;19.30;7.45;;;;;;;22.73;61.21;94677.59;1801832;78;21116;-60
2021/08/23 09:03:09;;;;;;;12.33;6.05;;;;;;;22.93;61.47;94681.30;1802553;79;20935;-61
2021/08/23 09:05:51;;;;;;;6.50;5.35;;;;;;;23.15;61.11;94674.80;1802049;79;20927;-60
2021/08/23 09:08:13;;;;;;;7.10;5.47;;;;;;;23.35;60.17;94678.48;1801361;79;21026;-60
2021/08/23 09:10:41;;;;;;;7.40;5.15;;;;;;;23.52;60.27;94669.80;1802177;79;21569;-59
2021/08/23 09:13:12;;;;;;;5.65;5.00;;;;;;;23.69;60.01;94665.47;1802216;79;21140;-60
2021/08/23 09:15:54;;;;;;;7.78;4.85;;;;;;;23.90;59.72;94665.70;1801977;79;21030;-59
2021/08/23 09:18:29;;;;;;;10.65;5.37;;;;;;;24.08;59.02;94665.63;1802457;79;21002;-59
2021/08/23 09:21:00;;;;;;;6.72;5.47;;;;;;;24.30;58.83;94672.27;1802081;79;21451;-59
2021/08/23 09:23:41;;;;;;;10.15;5.80;;;;;;;24.43;57.39;94675.11;1802652;79;21176;-59
2021/08/23 09:26:15;;;;;;;9.53;5.37;;;;;;;24.52;57.34;94671.88;1802070;79;21159;-61
2021/08/23 09:28:55;;;;;;;7.65;5.40;;;;;;;24.61;56.59;94673.63;1766371;81;21072;-60
2021/08/23 09:31:33;;;;;;;5.72;4.53;;;;;;;24.74;56.15;94668.67;1753110;81;21000;-63
2021/08/23 09:34:01;;;;;;;7.00;4.97;;;;;;;24.89;55.91;94668.86;1761860;81;20975;-60
2021/08/23 09:36:31;;;;;;;6.30;4.50;;;;;;;25.05;56.08;94665.72;1766387;80;21010;-61
2021/08/23 09:39:18;;;;;;;13.32;5.25;;;;;;;25.23;55.66;94659.22;1736220;82;21025;-59
2021/08/23 09:41:46;;;;;;;10.08;5.08;;;;;;;25.43;54.96;94660.57;1759358;81;20942;-61
2021/08/23 09:44:14;;;;;;;5.72;5.00;;;;;;;25.62;54.40;94653.48;1759744;81;20992;-60
2021/08/23 09:46:43;;;;;;;5.60;5.00;;;;;;;25.79;53.79;94655.89;1759341;81;21001;-60
2021/08/23 09:49:12;;;;;;;5.55;4.30;;;;;;;25.94;52.81;94651.95;1759267;81;21003;-60
2021/08/23 09:51:44;;;;;;;5.75;4.10;;;;;;;26.15;52.73;94650.55;1759248;81;21298;-61
2021/08/23 09:54:14;;;;;;;6.42;4.37;;;;;;;26.39;50.81;94650.17;1759679;81;21049;-59
2021/08/23 09:56:48;;;;;;;5.40;4.20;;;;;;;26.64;50.40;94647.86;1759345;81;21016;-60
2021/08/23 09:59:19;;;;;;;14.58;5.45;;;;;;;26.94;49.42;94641.63;1759599;81;20954;-59
2021/08/23 10:01:48;;;;;;;10.00;5.57;;;;;;;27.27;48.39;94640.06;1757926;81;21442;-60
2021/08/23 10:04:16;;;;;;;5.75;4.08;;;;;;;27.58;47.22;94638.83;1758717;81;21260;-61
2021/08/23 10:06:44;;;;;;;6.58;4.40;;;;;;;27.87;46.28;94637.44;1737927;82;21525;-60
2021/08/23 10:09:17;;;;;;;5.72;4.47;;;;;;;28.18;45.50;94631.91;1764968;81;21046;-59
2021/08/23 10:11:47;;;;;;;4.85;4.17;;;;;;;28.44;44.64;94630.88;1766389;81;21064;-60
2021/08/23 10:14:14;;;;;;;8.88;4.05;;;;;;;28.67;43.73;94629.45;1764799;81;20967;-60
2021/08/23 10:16:41;;;;;;;5.95;4.00;;;;;;;28.93;43.78;94629.07;1738084;82;21071;-60
2021/08/23 10:19:09;;;;;;;7.50;4.50;;;;;;;29.16;43.14;94624.08;1764792;81;20999;-61
2021/08/23 10:21:43;;;;;;;5.35;3.77;;;;;;;29.36;42.17;94623.06;1717423;81;21561;-59
2021/08/23 10:24:12;;;;;;;4.67;3.83;;;;;;;29.60;42.06;94625.23;1713619;82;21149;-62
2021/08/23 10:26:44;;;;;;;5.15;3.75;;;;;;;29.89;41.11;94632.83;1764771;81;20930;-60
2021/08/23 10:29:13;;;;;;;10.25;4.12;;;;;;;30.09;41.12;94624.03;1765235;81;21097;-61
2021/08/23 10:31:42;;;;;;;4.75;3.90;;;;;;;30.41;38.92;94623.21;1755611;81;21111;-59
2021/08/23 10:34:16;;;;;;;5.37;4.17;;;;;;;30.72;39.14;94625.22;1764941;81;21010;-59
2021/08/23 10:36:45;;;;;;;5.60;4.15;;;;;;;31.04;38.49;94623.67;1764736;81;21055;-59
2021/08/23 10:39:21;;;;;;;4.62;3.98;;;;;;;31.47;37.64;94627.30;1764893;80;21047;-58
2021/08/23 10:41:51;;;;;;;4.47;3.77;;;;;;;31.87;36.58;94624.91;1764972;81;21096;-59
2021/08/23 10:44:30;;;;;;;7.83;4.22;;;;;;;32.23;35.04;94622.86;1764891;81;21032;-58
2021/08/23 10:47:11;;;;;;;4.22;3.45;;;;;;;32.58;35.28;94623.45;1764662;81;20967;-61
2021/08/23 10:49:44;;;;;;;4.92;3.85;;;;;;;32.96;33.43;94620.73;1765638;81;21007;-60
2021/08/23 10:52:13;;;;;;;7.03;3.90;;;;;;;33.32;33.29;94612.08;1766376;81;21482;-61
2021/08/23 10:54:50;;;;;;;4.55;3.55;;;;;;;33.74;32.95;94614.56;1766471;81;21240;-60
2021/08/23 10:57:22;;;;;;;6.22;3.50;;;;;;;34.11;32.11;94615.84;1764904;81;20995;-61
2021/08/23 10:59:54;;;;;;;7.05;3.52;;;;;;;34.40;31.67;94618.69;1764921;81;21014;-59
2021/08/23 11:02:35;;;;;;;6.08;4.20;;;;;;;34.72;30.76;94611.64;1755234;81;20991;-61
2021/08/23 11:05:14;;;;;;;5.15;3.30;;;;;;;35.13;30.22;94605.22;1734982;82;21044;-62
2021/08/23 11:07:45;;;;;;;3.20;2.90;;;;;;;35.43;28.92;94610.11;1753277;81;21412;-59
2021/08/23 11:10:24;;;;;;;7.60;3.45;;;;;;;35.52;28.41;94603.58;1761948;81;21142;-62
2021/08/23 11:12:58;;;;;;;6.55;3.20;;;;;;;35.64;28.72;94617.27;1736356;81;21063;-61
2021/08/23 11:15:31;;;;;;;6.87;3.50;;;;;;;35.76;29.02;94605.19;1732438;82;21038;-59
2021/08/23 11:18:02;;;;;;;4.87;2.85;;;;;;;35.63;28.43;94606.45;1753146;81;21523;-61
2021/08/23 11:20:33;;;;;;;4.55;3.58;;;;;;;35.28;28.89;94607.67;1761812;81;21122;-60
2021/08/23 11:23:08;;;;;;;3.42;3.12;;;;;;;34.76;29.36;94602.67;1761378;81;21038;-61
2021/08/23 11:25:41;;;;;;;8.48;4.05;;;;;;;34.25;30.08;94598.28;1761738;81;20971;-61
2021/08/23 11:28:11;;;;;;;9.43;3.70;;;;;;;33.74;30.49;94598.09;1761486;81;21003;-60
2021/08/23 11:30:43;;;;;;;5.62;3.72;;;;;;;33.24;30.38;94599.39;1761816;81;20999;-59
2021/08/23 11:33:10;;;;;;;7.78;4.10;;;;;;;32.74;30.92;94596.23;1761680;81;21130;-60